<?xml version="1.0" encoding="UTF-8" standalone="no" ?>
<gpx xmlns="http://www.topografix.com/GPX/1/1" xmlns:xsi="http://www.w3.org/2001/XMLSchema-instance" xsi:schemaLocation="http://www.topografix.com/GPX/1/1 http://www.topografix.com/GPX/1/1/gpx.xsd" version="1.1" creator="VisuGPX - https://www.visugpx.com">
  <metadata>
    <name>83-V-Salernes</name>
    <desc><![CDATA[83-V-Salernes : Babadié           ]]></desc>
  </metadata>
  <trk>
    <name><![CDATA[2018-12-14-babadié hameau perdu ]]></name>
    <trkseg>
      <trkpt lat="43.54257" lon="6.31296">
        <ele>369.5</ele>
        <time>2018-12-14T12:45:18Z</time>
      </trkpt>
      <trkpt lat="43.54257" lon="6.31296">
        <ele>369.5</ele>
        <time>2018-12-14T12:45:19Z</time>
      </trkpt>
      <trkpt lat="43.54251" lon="6.31306">
        <ele>368.1</ele>
        <time>2018-12-14T12:47:05Z</time>
      </trkpt>
      <trkpt lat="43.54246" lon="6.31295">
        <ele>369.5</ele>
        <time>2018-12-14T12:48:38Z</time>
      </trkpt>
      <trkpt lat="43.54238" lon="6.31289">
        <ele>370</ele>
        <time>2018-12-14T12:48:56Z</time>
      </trkpt>
      <trkpt lat="43.54229" lon="6.31284">
        <ele>370.2</ele>
        <time>2018-12-14T12:49:54Z</time>
      </trkpt>
      <trkpt lat="43.54219" lon="6.3129">
        <ele>369</ele>
        <time>2018-12-14T12:50:05Z</time>
      </trkpt>
      <trkpt lat="43.54209" lon="6.31291">
        <ele>369.8</ele>
        <time>2018-12-14T12:50:13Z</time>
      </trkpt>
      <trkpt lat="43.542" lon="6.31294">
        <ele>369.6</ele>
        <time>2018-12-14T12:50:22Z</time>
      </trkpt>
      <trkpt lat="43.54191" lon="6.31297">
        <ele>369.2</ele>
        <time>2018-12-14T12:50:31Z</time>
      </trkpt>
      <trkpt lat="43.54181" lon="6.31298">
        <ele>369.2</ele>
        <time>2018-12-14T12:50:45Z</time>
      </trkpt>
      <trkpt lat="43.54172" lon="6.31299">
        <ele>368.9</ele>
        <time>2018-12-14T12:50:56Z</time>
      </trkpt>
      <trkpt lat="43.54163" lon="6.31299">
        <ele>369</ele>
        <time>2018-12-14T12:51:10Z</time>
      </trkpt>
      <trkpt lat="43.54153" lon="6.31298">
        <ele>369.1</ele>
        <time>2018-12-14T12:51:26Z</time>
      </trkpt>
      <trkpt lat="43.54147" lon="6.31288">
        <ele>369.2</ele>
        <time>2018-12-14T12:51:46Z</time>
      </trkpt>
      <trkpt lat="43.54143" lon="6.31277">
        <ele>369.3</ele>
        <time>2018-12-14T12:52:05Z</time>
      </trkpt>
      <trkpt lat="43.54138" lon="6.31265">
        <ele>369.5</ele>
        <time>2018-12-14T12:52:19Z</time>
      </trkpt>
      <trkpt lat="43.54136" lon="6.31253">
        <ele>369.4</ele>
        <time>2018-12-14T12:52:34Z</time>
      </trkpt>
      <trkpt lat="43.54134" lon="6.3124">
        <ele>369.6</ele>
        <time>2018-12-14T12:52:46Z</time>
      </trkpt>
      <trkpt lat="43.54131" lon="6.31227">
        <ele>370.2</ele>
        <time>2018-12-14T12:52:57Z</time>
      </trkpt>
      <trkpt lat="43.54127" lon="6.31216">
        <ele>369.9</ele>
        <time>2018-12-14T12:53:07Z</time>
      </trkpt>
      <trkpt lat="43.54125" lon="6.31203">
        <ele>369.5</ele>
        <time>2018-12-14T12:53:17Z</time>
      </trkpt>
      <trkpt lat="43.54124" lon="6.3119">
        <ele>369</ele>
        <time>2018-12-14T12:53:29Z</time>
      </trkpt>
      <trkpt lat="43.54123" lon="6.31177">
        <ele>368.4</ele>
        <time>2018-12-14T12:53:39Z</time>
      </trkpt>
      <trkpt lat="43.54119" lon="6.31164">
        <ele>368.4</ele>
        <time>2018-12-14T12:53:48Z</time>
      </trkpt>
      <trkpt lat="43.54118" lon="6.31151">
        <ele>368.2</ele>
        <time>2018-12-14T12:53:56Z</time>
      </trkpt>
      <trkpt lat="43.54116" lon="6.31138">
        <ele>367.7</ele>
        <time>2018-12-14T12:54:06Z</time>
      </trkpt>
      <trkpt lat="43.54112" lon="6.31126">
        <ele>367.6</ele>
        <time>2018-12-14T12:54:18Z</time>
      </trkpt>
      <trkpt lat="43.54109" lon="6.31114">
        <ele>367.3</ele>
        <time>2018-12-14T12:54:29Z</time>
      </trkpt>
      <trkpt lat="43.54112" lon="6.31101">
        <ele>367</ele>
        <time>2018-12-14T12:54:42Z</time>
      </trkpt>
      <trkpt lat="43.54121" lon="6.31101">
        <ele>367.5</ele>
        <time>2018-12-14T12:55:03Z</time>
      </trkpt>
      <trkpt lat="43.54131" lon="6.31101">
        <ele>368.1</ele>
        <time>2018-12-14T12:55:14Z</time>
      </trkpt>
      <trkpt lat="43.54138" lon="6.31093">
        <ele>368.2</ele>
        <time>2018-12-14T12:55:31Z</time>
      </trkpt>
      <trkpt lat="43.54146" lon="6.31086">
        <ele>368.5</ele>
        <time>2018-12-14T12:55:39Z</time>
      </trkpt>
      <trkpt lat="43.54152" lon="6.31076">
        <ele>368.5</ele>
        <time>2018-12-14T12:55:51Z</time>
      </trkpt>
      <trkpt lat="43.54162" lon="6.31074">
        <ele>368.6</ele>
        <time>2018-12-14T12:56:06Z</time>
      </trkpt>
      <trkpt lat="43.54165" lon="6.31086">
        <ele>369.7</ele>
        <time>2018-12-14T12:56:19Z</time>
      </trkpt>
      <trkpt lat="43.54174" lon="6.31089">
        <ele>370.5</ele>
        <time>2018-12-14T12:56:30Z</time>
      </trkpt>
      <trkpt lat="43.54183" lon="6.31088">
        <ele>370.8</ele>
        <time>2018-12-14T12:56:40Z</time>
      </trkpt>
      <trkpt lat="43.54192" lon="6.31084">
        <ele>371</ele>
        <time>2018-12-14T12:56:51Z</time>
      </trkpt>
      <trkpt lat="43.54201" lon="6.3108">
        <ele>371</ele>
        <time>2018-12-14T12:57:00Z</time>
      </trkpt>
      <trkpt lat="43.54209" lon="6.31074">
        <ele>370.7</ele>
        <time>2018-12-14T12:57:10Z</time>
      </trkpt>
      <trkpt lat="43.54218" lon="6.31067">
        <ele>371</ele>
        <time>2018-12-14T12:57:22Z</time>
      </trkpt>
      <trkpt lat="43.54225" lon="6.3106">
        <ele>370.5</ele>
        <time>2018-12-14T12:57:35Z</time>
      </trkpt>
      <trkpt lat="43.54234" lon="6.31056">
        <ele>370</ele>
        <time>2018-12-14T12:57:53Z</time>
      </trkpt>
      <trkpt lat="43.54244" lon="6.31056">
        <ele>369.9</ele>
        <time>2018-12-14T12:58:06Z</time>
      </trkpt>
      <trkpt lat="43.54252" lon="6.31062">
        <ele>369.8</ele>
        <time>2018-12-14T12:58:14Z</time>
      </trkpt>
      <trkpt lat="43.54261" lon="6.31068">
        <ele>370</ele>
        <time>2018-12-14T12:58:21Z</time>
      </trkpt>
      <trkpt lat="43.54269" lon="6.31075">
        <ele>370.1</ele>
        <time>2018-12-14T12:58:28Z</time>
      </trkpt>
      <trkpt lat="43.54276" lon="6.31082">
        <ele>370.7</ele>
        <time>2018-12-14T12:58:34Z</time>
      </trkpt>
      <trkpt lat="43.54282" lon="6.31092">
        <ele>371.6</ele>
        <time>2018-12-14T12:58:41Z</time>
      </trkpt>
      <trkpt lat="43.54286" lon="6.31103">
        <ele>373</ele>
        <time>2018-12-14T12:58:48Z</time>
      </trkpt>
      <trkpt lat="43.54288" lon="6.31117">
        <ele>374.3</ele>
        <time>2018-12-14T12:58:55Z</time>
      </trkpt>
      <trkpt lat="43.5429" lon="6.3113">
        <ele>374.7</ele>
        <time>2018-12-14T12:59:02Z</time>
      </trkpt>
      <trkpt lat="43.54292" lon="6.31142">
        <ele>373.9</ele>
        <time>2018-12-14T12:59:09Z</time>
      </trkpt>
      <trkpt lat="43.54299" lon="6.31151">
        <ele>372.4</ele>
        <time>2018-12-14T12:59:17Z</time>
      </trkpt>
      <trkpt lat="43.54308" lon="6.31157">
        <ele>370.5</ele>
        <time>2018-12-14T12:59:27Z</time>
      </trkpt>
      <trkpt lat="43.54318" lon="6.3116">
        <ele>369.2</ele>
        <time>2018-12-14T12:59:40Z</time>
      </trkpt>
      <trkpt lat="43.54327" lon="6.3116">
        <ele>368.6</ele>
        <time>2018-12-14T12:59:48Z</time>
      </trkpt>
      <trkpt lat="43.54336" lon="6.31162">
        <ele>368</ele>
        <time>2018-12-14T12:59:58Z</time>
      </trkpt>
      <trkpt lat="43.54345" lon="6.31159">
        <ele>366.9</ele>
        <time>2018-12-14T13:01:19Z</time>
      </trkpt>
      <trkpt lat="43.54353" lon="6.31153">
        <ele>365.7</ele>
        <time>2018-12-14T13:01:27Z</time>
      </trkpt>
      <trkpt lat="43.54362" lon="6.31148">
        <ele>365</ele>
        <time>2018-12-14T13:01:34Z</time>
      </trkpt>
      <trkpt lat="43.54373" lon="6.31143">
        <ele>363.9</ele>
        <time>2018-12-14T13:01:40Z</time>
      </trkpt>
      <trkpt lat="43.54383" lon="6.31138">
        <ele>362.7</ele>
        <time>2018-12-14T13:01:46Z</time>
      </trkpt>
      <trkpt lat="43.54391" lon="6.3113">
        <ele>361.8</ele>
        <time>2018-12-14T13:01:52Z</time>
      </trkpt>
      <trkpt lat="43.54397" lon="6.31121">
        <ele>361.2</ele>
        <time>2018-12-14T13:01:58Z</time>
      </trkpt>
      <trkpt lat="43.54404" lon="6.3111">
        <ele>360.1</ele>
        <time>2018-12-14T13:02:05Z</time>
      </trkpt>
      <trkpt lat="43.54408" lon="6.31098">
        <ele>359.8</ele>
        <time>2018-12-14T13:02:12Z</time>
      </trkpt>
      <trkpt lat="43.54412" lon="6.31085">
        <ele>360.1</ele>
        <time>2018-12-14T13:02:18Z</time>
      </trkpt>
      <trkpt lat="43.54414" lon="6.31072">
        <ele>360</ele>
        <time>2018-12-14T13:02:25Z</time>
      </trkpt>
      <trkpt lat="43.54419" lon="6.31062">
        <ele>359.2</ele>
        <time>2018-12-14T13:02:32Z</time>
      </trkpt>
      <trkpt lat="43.54426" lon="6.31051">
        <ele>358.7</ele>
        <time>2018-12-14T13:02:40Z</time>
      </trkpt>
      <trkpt lat="43.5443" lon="6.31039">
        <ele>358.4</ele>
        <time>2018-12-14T13:02:49Z</time>
      </trkpt>
      <trkpt lat="43.54431" lon="6.31026">
        <ele>358.2</ele>
        <time>2018-12-14T13:02:59Z</time>
      </trkpt>
      <trkpt lat="43.54434" lon="6.31014">
        <ele>358.4</ele>
        <time>2018-12-14T13:03:08Z</time>
      </trkpt>
      <trkpt lat="43.54431" lon="6.31001">
        <ele>358.2</ele>
        <time>2018-12-14T13:03:18Z</time>
      </trkpt>
      <trkpt lat="43.54427" lon="6.3099">
        <ele>358</ele>
        <time>2018-12-14T13:03:27Z</time>
      </trkpt>
      <trkpt lat="43.5442" lon="6.30982">
        <ele>358.3</ele>
        <time>2018-12-14T13:03:37Z</time>
      </trkpt>
      <trkpt lat="43.54411" lon="6.3098">
        <ele>358.3</ele>
        <time>2018-12-14T13:03:45Z</time>
      </trkpt>
      <trkpt lat="43.54401" lon="6.3098">
        <ele>358.6</ele>
        <time>2018-12-14T13:03:54Z</time>
      </trkpt>
      <trkpt lat="43.54391" lon="6.30982">
        <ele>358.6</ele>
        <time>2018-12-14T13:04:04Z</time>
      </trkpt>
      <trkpt lat="43.54381" lon="6.30982">
        <ele>359.1</ele>
        <time>2018-12-14T13:04:13Z</time>
      </trkpt>
      <trkpt lat="43.54372" lon="6.30982">
        <ele>359.6</ele>
        <time>2018-12-14T13:04:22Z</time>
      </trkpt>
      <trkpt lat="43.54361" lon="6.30979">
        <ele>360.1</ele>
        <time>2018-12-14T13:04:32Z</time>
      </trkpt>
      <trkpt lat="43.54352" lon="6.30979">
        <ele>360.6</ele>
        <time>2018-12-14T13:04:41Z</time>
      </trkpt>
      <trkpt lat="43.54343" lon="6.30979">
        <ele>361</ele>
        <time>2018-12-14T13:04:48Z</time>
      </trkpt>
      <trkpt lat="43.54333" lon="6.30979">
        <ele>361.3</ele>
        <time>2018-12-14T13:04:56Z</time>
      </trkpt>
      <trkpt lat="43.54323" lon="6.3098">
        <ele>361.5</ele>
        <time>2018-12-14T13:05:05Z</time>
      </trkpt>
      <trkpt lat="43.54314" lon="6.3098">
        <ele>362</ele>
        <time>2018-12-14T13:05:14Z</time>
      </trkpt>
      <trkpt lat="43.54305" lon="6.30982">
        <ele>362.5</ele>
        <time>2018-12-14T13:05:24Z</time>
      </trkpt>
      <trkpt lat="43.54296" lon="6.30987">
        <ele>363</ele>
        <time>2018-12-14T13:05:34Z</time>
      </trkpt>
      <trkpt lat="43.54286" lon="6.30991">
        <ele>363.5</ele>
        <time>2018-12-14T13:05:44Z</time>
      </trkpt>
      <trkpt lat="43.54277" lon="6.30995">
        <ele>363.9</ele>
        <time>2018-12-14T13:05:53Z</time>
      </trkpt>
      <trkpt lat="43.54269" lon="6.30999">
        <ele>364.1</ele>
        <time>2018-12-14T13:06:03Z</time>
      </trkpt>
      <trkpt lat="43.5426" lon="6.31003">
        <ele>364.5</ele>
        <time>2018-12-14T13:06:11Z</time>
      </trkpt>
      <trkpt lat="43.5425" lon="6.31008">
        <ele>365.5</ele>
        <time>2018-12-14T13:06:21Z</time>
      </trkpt>
      <trkpt lat="43.54241" lon="6.31012">
        <ele>366</ele>
        <time>2018-12-14T13:06:32Z</time>
      </trkpt>
      <trkpt lat="43.54232" lon="6.31017">
        <ele>366.6</ele>
        <time>2018-12-14T13:06:42Z</time>
      </trkpt>
      <trkpt lat="43.54224" lon="6.31023">
        <ele>366.9</ele>
        <time>2018-12-14T13:06:51Z</time>
      </trkpt>
      <trkpt lat="43.54215" lon="6.31026">
        <ele>367.3</ele>
        <time>2018-12-14T13:06:58Z</time>
      </trkpt>
      <trkpt lat="43.54206" lon="6.31031">
        <ele>367.7</ele>
        <time>2018-12-14T13:07:06Z</time>
      </trkpt>
      <trkpt lat="43.54197" lon="6.31035">
        <ele>367.8</ele>
        <time>2018-12-14T13:07:14Z</time>
      </trkpt>
      <trkpt lat="43.54189" lon="6.3104">
        <ele>368</ele>
        <time>2018-12-14T13:07:22Z</time>
      </trkpt>
      <trkpt lat="43.54179" lon="6.31044">
        <ele>367.8</ele>
        <time>2018-12-14T13:07:31Z</time>
      </trkpt>
      <trkpt lat="43.54171" lon="6.31049">
        <ele>367.6</ele>
        <time>2018-12-14T13:07:39Z</time>
      </trkpt>
      <trkpt lat="43.54161" lon="6.31053">
        <ele>367.7</ele>
        <time>2018-12-14T13:07:48Z</time>
      </trkpt>
      <trkpt lat="43.54153" lon="6.31057">
        <ele>367.2</ele>
        <time>2018-12-14T13:07:57Z</time>
      </trkpt>
      <trkpt lat="43.54143" lon="6.31062">
        <ele>367</ele>
        <time>2018-12-14T13:08:06Z</time>
      </trkpt>
      <trkpt lat="43.54134" lon="6.31066">
        <ele>367.1</ele>
        <time>2018-12-14T13:08:15Z</time>
      </trkpt>
      <trkpt lat="43.54125" lon="6.31072">
        <ele>366.7</ele>
        <time>2018-12-14T13:08:25Z</time>
      </trkpt>
      <trkpt lat="43.54117" lon="6.31079">
        <ele>366.5</ele>
        <time>2018-12-14T13:08:35Z</time>
      </trkpt>
      <trkpt lat="43.54109" lon="6.31085">
        <ele>366.6</ele>
        <time>2018-12-14T13:08:43Z</time>
      </trkpt>
      <trkpt lat="43.541" lon="6.31088">
        <ele>366.5</ele>
        <time>2018-12-14T13:08:53Z</time>
      </trkpt>
      <trkpt lat="43.54102" lon="6.31075">
        <ele>365.6</ele>
        <time>2018-12-14T13:09:05Z</time>
      </trkpt>
      <trkpt lat="43.54105" lon="6.31061">
        <ele>365.6</ele>
        <time>2018-12-14T13:09:17Z</time>
      </trkpt>
      <trkpt lat="43.54108" lon="6.3105">
        <ele>365.2</ele>
        <time>2018-12-14T13:09:28Z</time>
      </trkpt>
      <trkpt lat="43.54108" lon="6.31037">
        <ele>364.8</ele>
        <time>2018-12-14T13:09:39Z</time>
      </trkpt>
      <trkpt lat="43.54109" lon="6.31023">
        <ele>364.3</ele>
        <time>2018-12-14T13:09:50Z</time>
      </trkpt>
      <trkpt lat="43.54105" lon="6.31012">
        <ele>363.9</ele>
        <time>2018-12-14T13:10:00Z</time>
      </trkpt>
      <trkpt lat="43.54095" lon="6.31011">
        <ele>363</ele>
        <time>2018-12-14T13:10:10Z</time>
      </trkpt>
      <trkpt lat="43.54089" lon="6.30999">
        <ele>363.9</ele>
        <time>2018-12-14T13:10:19Z</time>
      </trkpt>
      <trkpt lat="43.54088" lon="6.30986">
        <ele>364.2</ele>
        <time>2018-12-14T13:10:28Z</time>
      </trkpt>
      <trkpt lat="43.5409" lon="6.30973">
        <ele>364.2</ele>
        <time>2018-12-14T13:10:38Z</time>
      </trkpt>
      <trkpt lat="43.54091" lon="6.30959">
        <ele>364.6</ele>
        <time>2018-12-14T13:10:48Z</time>
      </trkpt>
      <trkpt lat="43.54092" lon="6.30946">
        <ele>364.7</ele>
        <time>2018-12-14T13:10:58Z</time>
      </trkpt>
      <trkpt lat="43.54093" lon="6.30934">
        <ele>365.3</ele>
        <time>2018-12-14T13:11:07Z</time>
      </trkpt>
      <trkpt lat="43.54094" lon="6.30921">
        <ele>365.6</ele>
        <time>2018-12-14T13:11:16Z</time>
      </trkpt>
      <trkpt lat="43.54093" lon="6.30907">
        <ele>366.2</ele>
        <time>2018-12-14T13:11:25Z</time>
      </trkpt>
      <trkpt lat="43.54085" lon="6.30901">
        <ele>366.6</ele>
        <time>2018-12-14T13:11:54Z</time>
      </trkpt>
      <trkpt lat="43.54094" lon="6.30898">
        <ele>366.7</ele>
        <time>2018-12-14T13:13:05Z</time>
      </trkpt>
      <trkpt lat="43.54097" lon="6.30885">
        <ele>366.9</ele>
        <time>2018-12-14T13:13:14Z</time>
      </trkpt>
      <trkpt lat="43.54098" lon="6.30871">
        <ele>367.5</ele>
        <time>2018-12-14T13:13:24Z</time>
      </trkpt>
      <trkpt lat="43.541" lon="6.30858">
        <ele>368.8</ele>
        <time>2018-12-14T13:13:34Z</time>
      </trkpt>
      <trkpt lat="43.54101" lon="6.30845">
        <ele>370.3</ele>
        <time>2018-12-14T13:13:43Z</time>
      </trkpt>
      <trkpt lat="43.54103" lon="6.30832">
        <ele>371.6</ele>
        <time>2018-12-14T13:13:53Z</time>
      </trkpt>
      <trkpt lat="43.54101" lon="6.30818">
        <ele>372.4</ele>
        <time>2018-12-14T13:14:04Z</time>
      </trkpt>
      <trkpt lat="43.54101" lon="6.30805">
        <ele>373.7</ele>
        <time>2018-12-14T13:14:15Z</time>
      </trkpt>
      <trkpt lat="43.54101" lon="6.30793">
        <ele>375.5</ele>
        <time>2018-12-14T13:14:26Z</time>
      </trkpt>
      <trkpt lat="43.54103" lon="6.3078">
        <ele>377.2</ele>
        <time>2018-12-14T13:14:36Z</time>
      </trkpt>
      <trkpt lat="43.54102" lon="6.30767">
        <ele>379.2</ele>
        <time>2018-12-14T13:14:48Z</time>
      </trkpt>
      <trkpt lat="43.54105" lon="6.30754">
        <ele>380.2</ele>
        <time>2018-12-14T13:14:59Z</time>
      </trkpt>
      <trkpt lat="43.54107" lon="6.30742">
        <ele>381.3</ele>
        <time>2018-12-14T13:15:09Z</time>
      </trkpt>
      <trkpt lat="43.54112" lon="6.30731">
        <ele>382.6</ele>
        <time>2018-12-14T13:15:17Z</time>
      </trkpt>
      <trkpt lat="43.54115" lon="6.30718">
        <ele>383.9</ele>
        <time>2018-12-14T13:15:27Z</time>
      </trkpt>
      <trkpt lat="43.54117" lon="6.30705">
        <ele>385.5</ele>
        <time>2018-12-14T13:15:38Z</time>
      </trkpt>
      <trkpt lat="43.54117" lon="6.30692">
        <ele>386.8</ele>
        <time>2018-12-14T13:15:48Z</time>
      </trkpt>
      <trkpt lat="43.54117" lon="6.30679">
        <ele>387.7</ele>
        <time>2018-12-14T13:15:58Z</time>
      </trkpt>
      <trkpt lat="43.54123" lon="6.3067">
        <ele>388.1</ele>
        <time>2018-12-14T13:16:10Z</time>
      </trkpt>
      <trkpt lat="43.54132" lon="6.30672">
        <ele>389.7</ele>
        <time>2018-12-14T13:16:20Z</time>
      </trkpt>
      <trkpt lat="43.54141" lon="6.30674">
        <ele>391.4</ele>
        <time>2018-12-14T13:16:31Z</time>
      </trkpt>
      <trkpt lat="43.54151" lon="6.30676">
        <ele>393.3</ele>
        <time>2018-12-14T13:16:44Z</time>
      </trkpt>
      <trkpt lat="43.54161" lon="6.30677">
        <ele>394.6</ele>
        <time>2018-12-14T13:16:55Z</time>
      </trkpt>
      <trkpt lat="43.5417" lon="6.30679">
        <ele>396.8</ele>
        <time>2018-12-14T13:17:08Z</time>
      </trkpt>
      <trkpt lat="43.5418" lon="6.3068">
        <ele>398.4</ele>
        <time>2018-12-14T13:17:20Z</time>
      </trkpt>
      <trkpt lat="43.5419" lon="6.3068">
        <ele>399.3</ele>
        <time>2018-12-14T13:17:30Z</time>
      </trkpt>
      <trkpt lat="43.542" lon="6.30679">
        <ele>400.2</ele>
        <time>2018-12-14T13:17:43Z</time>
      </trkpt>
      <trkpt lat="43.54209" lon="6.30676">
        <ele>400.8</ele>
        <time>2018-12-14T13:17:51Z</time>
      </trkpt>
      <trkpt lat="43.54219" lon="6.30677">
        <ele>401.2</ele>
        <time>2018-12-14T13:18:01Z</time>
      </trkpt>
      <trkpt lat="43.54228" lon="6.30678">
        <ele>401.7</ele>
        <time>2018-12-14T13:18:12Z</time>
      </trkpt>
      <trkpt lat="43.54237" lon="6.30679">
        <ele>402.1</ele>
        <time>2018-12-14T13:18:21Z</time>
      </trkpt>
      <trkpt lat="43.54247" lon="6.30679">
        <ele>402.3</ele>
        <time>2018-12-14T13:18:30Z</time>
      </trkpt>
      <trkpt lat="43.54256" lon="6.30681">
        <ele>402.7</ele>
        <time>2018-12-14T13:18:40Z</time>
      </trkpt>
      <trkpt lat="43.54266" lon="6.30682">
        <ele>403</ele>
        <time>2018-12-14T13:18:48Z</time>
      </trkpt>
      <trkpt lat="43.54276" lon="6.30685">
        <ele>403.9</ele>
        <time>2018-12-14T13:19:00Z</time>
      </trkpt>
      <trkpt lat="43.54285" lon="6.30684">
        <ele>403.9</ele>
        <time>2018-12-14T13:19:11Z</time>
      </trkpt>
      <trkpt lat="43.54295" lon="6.30685">
        <ele>404.1</ele>
        <time>2018-12-14T13:19:19Z</time>
      </trkpt>
      <trkpt lat="43.54304" lon="6.30685">
        <ele>404.6</ele>
        <time>2018-12-14T13:19:29Z</time>
      </trkpt>
      <trkpt lat="43.54314" lon="6.30687">
        <ele>404.1</ele>
        <time>2018-12-14T13:19:40Z</time>
      </trkpt>
      <trkpt lat="43.54324" lon="6.30687">
        <ele>404</ele>
        <time>2018-12-14T13:19:51Z</time>
      </trkpt>
      <trkpt lat="43.54334" lon="6.30686">
        <ele>403.8</ele>
        <time>2018-12-14T13:20:01Z</time>
      </trkpt>
      <trkpt lat="43.54343" lon="6.30685">
        <ele>403.4</ele>
        <time>2018-12-14T13:20:10Z</time>
      </trkpt>
      <trkpt lat="43.54352" lon="6.30683">
        <ele>403.4</ele>
        <time>2018-12-14T13:20:16Z</time>
      </trkpt>
      <trkpt lat="43.54362" lon="6.30681">
        <ele>402.8</ele>
        <time>2018-12-14T13:20:27Z</time>
      </trkpt>
      <trkpt lat="43.54371" lon="6.30681">
        <ele>402.4</ele>
        <time>2018-12-14T13:20:36Z</time>
      </trkpt>
      <trkpt lat="43.54381" lon="6.30682">
        <ele>401.3</ele>
        <time>2018-12-14T13:20:46Z</time>
      </trkpt>
      <trkpt lat="43.54391" lon="6.30682">
        <ele>400.8</ele>
        <time>2018-12-14T13:20:57Z</time>
      </trkpt>
      <trkpt lat="43.544" lon="6.30682">
        <ele>400.3</ele>
        <time>2018-12-14T13:21:03Z</time>
      </trkpt>
      <trkpt lat="43.54409" lon="6.30681">
        <ele>400.2</ele>
        <time>2018-12-14T13:21:13Z</time>
      </trkpt>
      <trkpt lat="43.54419" lon="6.3068">
        <ele>399.6</ele>
        <time>2018-12-14T13:21:21Z</time>
      </trkpt>
      <trkpt lat="43.54428" lon="6.3068">
        <ele>398.8</ele>
        <time>2018-12-14T13:21:32Z</time>
      </trkpt>
      <trkpt lat="43.54438" lon="6.30683">
        <ele>398.3</ele>
        <time>2018-12-14T13:21:42Z</time>
      </trkpt>
      <trkpt lat="43.54448" lon="6.30686">
        <ele>397.5</ele>
        <time>2018-12-14T13:21:52Z</time>
      </trkpt>
      <trkpt lat="43.54457" lon="6.30688">
        <ele>397.1</ele>
        <time>2018-12-14T13:22:02Z</time>
      </trkpt>
      <trkpt lat="43.54466" lon="6.30691">
        <ele>396.6</ele>
        <time>2018-12-14T13:22:11Z</time>
      </trkpt>
      <trkpt lat="43.54476" lon="6.30695">
        <ele>395.6</ele>
        <time>2018-12-14T13:22:20Z</time>
      </trkpt>
      <trkpt lat="43.54484" lon="6.307">
        <ele>395.1</ele>
        <time>2018-12-14T13:22:29Z</time>
      </trkpt>
      <trkpt lat="43.54495" lon="6.307">
        <ele>394.7</ele>
        <time>2018-12-14T13:22:39Z</time>
      </trkpt>
      <trkpt lat="43.54503" lon="6.30692">
        <ele>394.7</ele>
        <time>2018-12-14T13:22:49Z</time>
      </trkpt>
      <trkpt lat="43.54506" lon="6.3068">
        <ele>395.5</ele>
        <time>2018-12-14T13:22:58Z</time>
      </trkpt>
      <trkpt lat="43.54511" lon="6.30669">
        <ele>396.5</ele>
        <time>2018-12-14T13:23:07Z</time>
      </trkpt>
      <trkpt lat="43.54514" lon="6.30657">
        <ele>397.4</ele>
        <time>2018-12-14T13:23:16Z</time>
      </trkpt>
      <trkpt lat="43.54517" lon="6.30644">
        <ele>398.5</ele>
        <time>2018-12-14T13:23:26Z</time>
      </trkpt>
      <trkpt lat="43.54517" lon="6.30631">
        <ele>399.6</ele>
        <time>2018-12-14T13:23:36Z</time>
      </trkpt>
      <trkpt lat="43.54519" lon="6.30619">
        <ele>400.2</ele>
        <time>2018-12-14T13:23:46Z</time>
      </trkpt>
      <trkpt lat="43.54521" lon="6.30607">
        <ele>400.6</ele>
        <time>2018-12-14T13:23:55Z</time>
      </trkpt>
      <trkpt lat="43.54523" lon="6.30594">
        <ele>401.3</ele>
        <time>2018-12-14T13:24:03Z</time>
      </trkpt>
      <trkpt lat="43.54525" lon="6.30581">
        <ele>402.3</ele>
        <time>2018-12-14T13:24:12Z</time>
      </trkpt>
      <trkpt lat="43.5453" lon="6.3057">
        <ele>403.1</ele>
        <time>2018-12-14T13:24:24Z</time>
      </trkpt>
      <trkpt lat="43.54539" lon="6.30565">
        <ele>404</ele>
        <time>2018-12-14T13:24:36Z</time>
      </trkpt>
      <trkpt lat="43.54548" lon="6.30561">
        <ele>404.4</ele>
        <time>2018-12-14T13:24:45Z</time>
      </trkpt>
      <trkpt lat="43.54556" lon="6.30557">
        <ele>405.5</ele>
        <time>2018-12-14T13:24:56Z</time>
      </trkpt>
      <trkpt lat="43.54565" lon="6.30552">
        <ele>406.3</ele>
        <time>2018-12-14T13:25:06Z</time>
      </trkpt>
      <trkpt lat="43.54574" lon="6.30546">
        <ele>407</ele>
        <time>2018-12-14T13:25:16Z</time>
      </trkpt>
      <trkpt lat="43.54583" lon="6.30543">
        <ele>407.8</ele>
        <time>2018-12-14T13:25:24Z</time>
      </trkpt>
      <trkpt lat="43.54589" lon="6.30534">
        <ele>408</ele>
        <time>2018-12-14T13:25:33Z</time>
      </trkpt>
      <trkpt lat="43.54595" lon="6.30523">
        <ele>408.3</ele>
        <time>2018-12-14T13:25:41Z</time>
      </trkpt>
      <trkpt lat="43.54599" lon="6.30511">
        <ele>408.6</ele>
        <time>2018-12-14T13:25:51Z</time>
      </trkpt>
      <trkpt lat="43.54605" lon="6.30501">
        <ele>408.4</ele>
        <time>2018-12-14T13:25:59Z</time>
      </trkpt>
      <trkpt lat="43.5461" lon="6.3049">
        <ele>408.5</ele>
        <time>2018-12-14T13:26:08Z</time>
      </trkpt>
      <trkpt lat="43.54616" lon="6.3048">
        <ele>408.6</ele>
        <time>2018-12-14T13:26:16Z</time>
      </trkpt>
      <trkpt lat="43.54622" lon="6.3047">
        <ele>408.8</ele>
        <time>2018-12-14T13:26:26Z</time>
      </trkpt>
      <trkpt lat="43.54628" lon="6.30461">
        <ele>409.1</ele>
        <time>2018-12-14T13:26:34Z</time>
      </trkpt>
      <trkpt lat="43.54631" lon="6.30448">
        <ele>408.5</ele>
        <time>2018-12-14T13:26:43Z</time>
      </trkpt>
      <trkpt lat="43.54637" lon="6.30437">
        <ele>408</ele>
        <time>2018-12-14T13:26:53Z</time>
      </trkpt>
      <trkpt lat="43.54643" lon="6.30425">
        <ele>407.4</ele>
        <time>2018-12-14T13:27:01Z</time>
      </trkpt>
      <trkpt lat="43.54647" lon="6.30413">
        <ele>407.3</ele>
        <time>2018-12-14T13:27:10Z</time>
      </trkpt>
      <trkpt lat="43.5465" lon="6.30401">
        <ele>407.6</ele>
        <time>2018-12-14T13:27:20Z</time>
      </trkpt>
      <trkpt lat="43.54648" lon="6.30389">
        <ele>407.8</ele>
        <time>2018-12-14T13:28:08Z</time>
      </trkpt>
      <trkpt lat="43.54656" lon="6.30394">
        <ele>407.7</ele>
        <time>2018-12-14T13:28:48Z</time>
      </trkpt>
      <trkpt lat="43.54653" lon="6.30382">
        <ele>408.9</ele>
        <time>2018-12-14T13:30:27Z</time>
      </trkpt>
      <trkpt lat="43.54651" lon="6.30369">
        <ele>408.9</ele>
        <time>2018-12-14T13:30:56Z</time>
      </trkpt>
      <trkpt lat="43.54644" lon="6.3036">
        <ele>407.6</ele>
        <time>2018-12-14T13:31:19Z</time>
      </trkpt>
      <trkpt lat="43.54635" lon="6.30355">
        <ele>406.4</ele>
        <time>2018-12-14T13:31:36Z</time>
      </trkpt>
      <trkpt lat="43.54631" lon="6.30344">
        <ele>405.6</ele>
        <time>2018-12-14T13:31:56Z</time>
      </trkpt>
      <trkpt lat="43.54634" lon="6.30332">
        <ele>404.8</ele>
        <time>2018-12-14T13:32:28Z</time>
      </trkpt>
      <trkpt lat="43.54627" lon="6.30324">
        <ele>404.2</ele>
        <time>2018-12-14T13:32:50Z</time>
      </trkpt>
      <trkpt lat="43.54618" lon="6.30319">
        <ele>403.3</ele>
        <time>2018-12-14T13:33:04Z</time>
      </trkpt>
      <trkpt lat="43.54617" lon="6.30306">
        <ele>402.1</ele>
        <time>2018-12-14T13:33:22Z</time>
      </trkpt>
      <trkpt lat="43.54624" lon="6.30299">
        <ele>401.8</ele>
        <time>2018-12-14T13:33:34Z</time>
      </trkpt>
      <trkpt lat="43.54627" lon="6.30287">
        <ele>401.7</ele>
        <time>2018-12-14T13:33:51Z</time>
      </trkpt>
      <trkpt lat="43.54633" lon="6.30278">
        <ele>402.2</ele>
        <time>2018-12-14T13:34:56Z</time>
      </trkpt>
      <trkpt lat="43.54632" lon="6.30291">
        <ele>402.3</ele>
        <time>2018-12-14T13:35:40Z</time>
      </trkpt>
      <trkpt lat="43.54639" lon="6.303">
        <ele>403.6</ele>
        <time>2018-12-14T13:36:00Z</time>
      </trkpt>
      <trkpt lat="43.54648" lon="6.30301">
        <ele>404.3</ele>
        <time>2018-12-14T13:36:15Z</time>
      </trkpt>
      <trkpt lat="43.54657" lon="6.30299">
        <ele>404.8</ele>
        <time>2018-12-14T13:37:05Z</time>
      </trkpt>
      <trkpt lat="43.54669" lon="6.30294">
        <ele>405.6</ele>
        <time>2018-12-14T13:37:33Z</time>
      </trkpt>
      <trkpt lat="43.54659" lon="6.30295">
        <ele>405.7</ele>
        <time>2018-12-14T13:37:51Z</time>
      </trkpt>
      <trkpt lat="43.54664" lon="6.30306">
        <ele>406</ele>
        <time>2018-12-14T13:38:08Z</time>
      </trkpt>
      <trkpt lat="43.54655" lon="6.30306">
        <ele>405.9</ele>
        <time>2018-12-14T13:38:42Z</time>
      </trkpt>
      <trkpt lat="43.54661" lon="6.30315">
        <ele>404</ele>
        <time>2018-12-14T13:38:58Z</time>
      </trkpt>
      <trkpt lat="43.54658" lon="6.30327">
        <ele>407.5</ele>
        <time>2018-12-14T13:39:28Z</time>
      </trkpt>
      <trkpt lat="43.54664" lon="6.30336">
        <ele>407.9</ele>
        <time>2018-12-14T13:39:49Z</time>
      </trkpt>
      <trkpt lat="43.54672" lon="6.30332">
        <ele>410.2</ele>
        <time>2018-12-14T13:40:25Z</time>
      </trkpt>
      <trkpt lat="43.54678" lon="6.30321">
        <ele>411</ele>
        <time>2018-12-14T13:40:38Z</time>
      </trkpt>
      <trkpt lat="43.54685" lon="6.30313">
        <ele>410.5</ele>
        <time>2018-12-14T13:41:05Z</time>
      </trkpt>
      <trkpt lat="43.54678" lon="6.30323">
        <ele>410.8</ele>
        <time>2018-12-14T13:42:02Z</time>
      </trkpt>
      <trkpt lat="43.54675" lon="6.30337">
        <ele>412.8</ele>
        <time>2018-12-14T13:42:17Z</time>
      </trkpt>
      <trkpt lat="43.54666" lon="6.30332">
        <ele>409.1</ele>
        <time>2018-12-14T13:42:57Z</time>
      </trkpt>
      <trkpt lat="43.54657" lon="6.30332">
        <ele>407.5</ele>
        <time>2018-12-14T13:43:18Z</time>
      </trkpt>
      <trkpt lat="43.54666" lon="6.30326">
        <ele>407.3</ele>
        <time>2018-12-14T13:44:04Z</time>
      </trkpt>
      <trkpt lat="43.54672" lon="6.30317">
        <ele>407.3</ele>
        <time>2018-12-14T13:44:45Z</time>
      </trkpt>
      <trkpt lat="43.54663" lon="6.30315">
        <ele>406.2</ele>
        <time>2018-12-14T13:45:26Z</time>
      </trkpt>
      <trkpt lat="43.54657" lon="6.30305">
        <ele>404.6</ele>
        <time>2018-12-14T13:45:41Z</time>
      </trkpt>
      <trkpt lat="43.5465" lon="6.30293">
        <ele>403.9</ele>
        <time>2018-12-14T13:45:49Z</time>
      </trkpt>
      <trkpt lat="43.54643" lon="6.30301">
        <ele>403.4</ele>
        <time>2018-12-14T13:46:05Z</time>
      </trkpt>
      <trkpt lat="43.54652" lon="6.30302">
        <ele>403.1</ele>
        <time>2018-12-14T13:48:05Z</time>
      </trkpt>
      <trkpt lat="43.54653" lon="6.30288">
        <ele>402.6</ele>
        <time>2018-12-14T13:48:45Z</time>
      </trkpt>
      <trkpt lat="43.54659" lon="6.30278">
        <ele>402.5</ele>
        <time>2018-12-14T13:49:06Z</time>
      </trkpt>
      <trkpt lat="43.54667" lon="6.30269">
        <ele>403.2</ele>
        <time>2018-12-14T13:49:23Z</time>
      </trkpt>
      <trkpt lat="43.54675" lon="6.3026">
        <ele>404.6</ele>
        <time>2018-12-14T13:49:35Z</time>
      </trkpt>
      <trkpt lat="43.54678" lon="6.30248">
        <ele>404.3</ele>
        <time>2018-12-14T13:49:43Z</time>
      </trkpt>
      <trkpt lat="43.54678" lon="6.30235">
        <ele>403.3</ele>
        <time>2018-12-14T13:49:52Z</time>
      </trkpt>
      <trkpt lat="43.54679" lon="6.30222">
        <ele>402.5</ele>
        <time>2018-12-14T13:50:06Z</time>
      </trkpt>
      <trkpt lat="43.54669" lon="6.30216">
        <ele>401.8</ele>
        <time>2018-12-14T13:50:15Z</time>
      </trkpt>
      <trkpt lat="43.54665" lon="6.30204">
        <ele>400.3</ele>
        <time>2018-12-14T13:50:28Z</time>
      </trkpt>
      <trkpt lat="43.5467" lon="6.30193">
        <ele>400.2</ele>
        <time>2018-12-14T13:50:36Z</time>
      </trkpt>
      <trkpt lat="43.54673" lon="6.30181">
        <ele>399.7</ele>
        <time>2018-12-14T13:50:45Z</time>
      </trkpt>
      <trkpt lat="43.5468" lon="6.30171">
        <ele>399.4</ele>
        <time>2018-12-14T13:50:52Z</time>
      </trkpt>
      <trkpt lat="43.54685" lon="6.3016">
        <ele>399</ele>
        <time>2018-12-14T13:51:00Z</time>
      </trkpt>
      <trkpt lat="43.54692" lon="6.30151">
        <ele>398.5</ele>
        <time>2018-12-14T13:51:09Z</time>
      </trkpt>
      <trkpt lat="43.54695" lon="6.30139">
        <ele>398.8</ele>
        <time>2018-12-14T13:51:19Z</time>
      </trkpt>
      <trkpt lat="43.54693" lon="6.30127">
        <ele>398.5</ele>
        <time>2018-12-14T13:51:40Z</time>
      </trkpt>
      <trkpt lat="43.54697" lon="6.30115">
        <ele>397.3</ele>
        <time>2018-12-14T13:54:13Z</time>
      </trkpt>
      <trkpt lat="43.54698" lon="6.30127">
        <ele>397.2</ele>
        <time>2018-12-14T13:54:55Z</time>
      </trkpt>
      <trkpt lat="43.54698" lon="6.30114">
        <ele>396.7</ele>
        <time>2018-12-14T13:55:47Z</time>
      </trkpt>
      <trkpt lat="43.54697" lon="6.30101">
        <ele>396.7</ele>
        <time>2018-12-14T13:56:09Z</time>
      </trkpt>
      <trkpt lat="43.54689" lon="6.30098">
        <ele>396</ele>
        <time>2018-12-14T13:56:24Z</time>
      </trkpt>
      <trkpt lat="43.5468" lon="6.30094">
        <ele>394.6</ele>
        <time>2018-12-14T13:56:47Z</time>
      </trkpt>
      <trkpt lat="43.54672" lon="6.30085">
        <ele>394.1</ele>
        <time>2018-12-14T13:57:13Z</time>
      </trkpt>
      <trkpt lat="43.54668" lon="6.30073">
        <ele>393.8</ele>
        <time>2018-12-14T13:57:28Z</time>
      </trkpt>
      <trkpt lat="43.5466" lon="6.30067">
        <ele>394</ele>
        <time>2018-12-14T13:57:39Z</time>
      </trkpt>
      <trkpt lat="43.54651" lon="6.30071">
        <ele>393.5</ele>
        <time>2018-12-14T13:57:48Z</time>
      </trkpt>
      <trkpt lat="43.54642" lon="6.30065">
        <ele>392.8</ele>
        <time>2018-12-14T13:58:04Z</time>
      </trkpt>
      <trkpt lat="43.54634" lon="6.30059">
        <ele>392.1</ele>
        <time>2018-12-14T13:58:27Z</time>
      </trkpt>
      <trkpt lat="43.54628" lon="6.30048">
        <ele>391.6</ele>
        <time>2018-12-14T13:59:12Z</time>
      </trkpt>
      <trkpt lat="43.54623" lon="6.30039">
        <ele>390.9</ele>
        <time>2018-12-14T13:59:30Z</time>
      </trkpt>
      <trkpt lat="43.54615" lon="6.30031">
        <ele>390.7</ele>
        <time>2018-12-14T13:59:38Z</time>
      </trkpt>
      <trkpt lat="43.54608" lon="6.30023">
        <ele>390.9</ele>
        <time>2018-12-14T13:59:49Z</time>
      </trkpt>
      <trkpt lat="43.54599" lon="6.30015">
        <ele>390.6</ele>
        <time>2018-12-14T14:00:02Z</time>
      </trkpt>
      <trkpt lat="43.54592" lon="6.30006">
        <ele>390.8</ele>
        <time>2018-12-14T14:00:14Z</time>
      </trkpt>
      <trkpt lat="43.54591" lon="6.29994">
        <ele>391</ele>
        <time>2018-12-14T14:00:32Z</time>
      </trkpt>
      <trkpt lat="43.546" lon="6.29986">
        <ele>390.9</ele>
        <time>2018-12-14T14:00:47Z</time>
      </trkpt>
      <trkpt lat="43.54602" lon="6.29973">
        <ele>391.1</ele>
        <time>2018-12-14T14:01:31Z</time>
      </trkpt>
      <trkpt lat="43.54605" lon="6.2996">
        <ele>391</ele>
        <time>2018-12-14T14:02:02Z</time>
      </trkpt>
      <trkpt lat="43.54608" lon="6.29948">
        <ele>391.2</ele>
        <time>2018-12-14T14:02:20Z</time>
      </trkpt>
      <trkpt lat="43.54601" lon="6.29938">
        <ele>391.3</ele>
        <time>2018-12-14T14:02:55Z</time>
      </trkpt>
      <trkpt lat="43.54593" lon="6.29932">
        <ele>391.7</ele>
        <time>2018-12-14T14:03:13Z</time>
      </trkpt>
      <trkpt lat="43.54584" lon="6.29928">
        <ele>392</ele>
        <time>2018-12-14T14:03:27Z</time>
      </trkpt>
      <trkpt lat="43.54575" lon="6.29931">
        <ele>392.2</ele>
        <time>2018-12-14T14:03:36Z</time>
      </trkpt>
      <trkpt lat="43.54566" lon="6.29928">
        <ele>392</ele>
        <time>2018-12-14T14:03:45Z</time>
      </trkpt>
      <trkpt lat="43.54558" lon="6.29921">
        <ele>392</ele>
        <time>2018-12-14T14:03:55Z</time>
      </trkpt>
      <trkpt lat="43.54549" lon="6.29916">
        <ele>392.2</ele>
        <time>2018-12-14T14:04:03Z</time>
      </trkpt>
      <trkpt lat="43.5454" lon="6.2991">
        <ele>392.6</ele>
        <time>2018-12-14T14:04:12Z</time>
      </trkpt>
      <trkpt lat="43.54532" lon="6.29904">
        <ele>393.2</ele>
        <time>2018-12-14T14:04:19Z</time>
      </trkpt>
      <trkpt lat="43.54524" lon="6.29896">
        <ele>393.7</ele>
        <time>2018-12-14T14:04:28Z</time>
      </trkpt>
      <trkpt lat="43.54515" lon="6.2989">
        <ele>394.4</ele>
        <time>2018-12-14T14:04:36Z</time>
      </trkpt>
      <trkpt lat="43.54506" lon="6.29884">
        <ele>394.9</ele>
        <time>2018-12-14T14:04:44Z</time>
      </trkpt>
      <trkpt lat="43.54498" lon="6.29877">
        <ele>395.3</ele>
        <time>2018-12-14T14:04:53Z</time>
      </trkpt>
      <trkpt lat="43.54488" lon="6.29873">
        <ele>395.4</ele>
        <time>2018-12-14T14:05:03Z</time>
      </trkpt>
      <trkpt lat="43.54479" lon="6.29867">
        <ele>396</ele>
        <time>2018-12-14T14:05:12Z</time>
      </trkpt>
      <trkpt lat="43.54473" lon="6.29859">
        <ele>396.3</ele>
        <time>2018-12-14T14:05:31Z</time>
      </trkpt>
      <trkpt lat="43.54465" lon="6.29851">
        <ele>397.3</ele>
        <time>2018-12-14T14:05:42Z</time>
      </trkpt>
      <trkpt lat="43.54463" lon="6.29839">
        <ele>397.4</ele>
        <time>2018-12-14T14:05:55Z</time>
      </trkpt>
      <trkpt lat="43.54461" lon="6.29827">
        <ele>397.6</ele>
        <time>2018-12-14T14:06:05Z</time>
      </trkpt>
      <trkpt lat="43.54458" lon="6.29814">
        <ele>397.6</ele>
        <time>2018-12-14T14:06:22Z</time>
      </trkpt>
      <trkpt lat="43.54464" lon="6.29804">
        <ele>397.5</ele>
        <time>2018-12-14T14:06:31Z</time>
      </trkpt>
      <trkpt lat="43.54472" lon="6.29797">
        <ele>397.3</ele>
        <time>2018-12-14T14:06:39Z</time>
      </trkpt>
      <trkpt lat="43.5448" lon="6.2979">
        <ele>397.5</ele>
        <time>2018-12-14T14:06:52Z</time>
      </trkpt>
      <trkpt lat="43.54486" lon="6.29781">
        <ele>397.4</ele>
        <time>2018-12-14T14:07:02Z</time>
      </trkpt>
      <trkpt lat="43.54496" lon="6.29781">
        <ele>398.3</ele>
        <time>2018-12-14T14:07:25Z</time>
      </trkpt>
      <trkpt lat="43.54493" lon="6.29769">
        <ele>397.4</ele>
        <time>2018-12-14T14:07:44Z</time>
      </trkpt>
      <trkpt lat="43.54503" lon="6.2977">
        <ele>396.9</ele>
        <time>2018-12-14T14:07:54Z</time>
      </trkpt>
      <trkpt lat="43.54511" lon="6.29764">
        <ele>397.3</ele>
        <time>2018-12-14T14:08:21Z</time>
      </trkpt>
      <trkpt lat="43.54503" lon="6.29757">
        <ele>397</ele>
        <time>2018-12-14T14:09:08Z</time>
      </trkpt>
      <trkpt lat="43.54507" lon="6.29745">
        <ele>397.1</ele>
        <time>2018-12-14T14:09:21Z</time>
      </trkpt>
      <trkpt lat="43.54516" lon="6.29739">
        <ele>397</ele>
        <time>2018-12-14T14:09:29Z</time>
      </trkpt>
      <trkpt lat="43.54524" lon="6.29733">
        <ele>397.1</ele>
        <time>2018-12-14T14:09:37Z</time>
      </trkpt>
      <trkpt lat="43.54534" lon="6.29729">
        <ele>396.6</ele>
        <time>2018-12-14T14:09:45Z</time>
      </trkpt>
      <trkpt lat="43.54544" lon="6.29723">
        <ele>397.6</ele>
        <time>2018-12-14T14:10:10Z</time>
      </trkpt>
      <trkpt lat="43.54552" lon="6.29718">
        <ele>396.9</ele>
        <time>2018-12-14T14:10:17Z</time>
      </trkpt>
      <trkpt lat="43.5456" lon="6.29711">
        <ele>396.7</ele>
        <time>2018-12-14T14:10:27Z</time>
      </trkpt>
      <trkpt lat="43.54568" lon="6.29704">
        <ele>396.6</ele>
        <time>2018-12-14T14:10:38Z</time>
      </trkpt>
      <trkpt lat="43.54577" lon="6.29698">
        <ele>397.1</ele>
        <time>2018-12-14T14:10:47Z</time>
      </trkpt>
      <trkpt lat="43.54586" lon="6.29692">
        <ele>397</ele>
        <time>2018-12-14T14:10:55Z</time>
      </trkpt>
      <trkpt lat="43.54594" lon="6.29685">
        <ele>396.8</ele>
        <time>2018-12-14T14:11:04Z</time>
      </trkpt>
      <trkpt lat="43.54602" lon="6.29677">
        <ele>396.3</ele>
        <time>2018-12-14T14:11:12Z</time>
      </trkpt>
      <trkpt lat="43.5461" lon="6.29669">
        <ele>395.9</ele>
        <time>2018-12-14T14:11:22Z</time>
      </trkpt>
      <trkpt lat="43.54617" lon="6.29661">
        <ele>395.6</ele>
        <time>2018-12-14T14:11:32Z</time>
      </trkpt>
      <trkpt lat="43.54626" lon="6.29664">
        <ele>396</ele>
        <time>2018-12-14T14:12:25Z</time>
      </trkpt>
      <trkpt lat="43.54626" lon="6.29652">
        <ele>395.4</ele>
        <time>2018-12-14T14:13:08Z</time>
      </trkpt>
      <trkpt lat="43.54633" lon="6.29642">
        <ele>395.1</ele>
        <time>2018-12-14T14:13:13Z</time>
      </trkpt>
      <trkpt lat="43.5463" lon="6.29629">
        <ele>395</ele>
        <time>2018-12-14T14:13:17Z</time>
      </trkpt>
      <trkpt lat="43.54633" lon="6.29617">
        <ele>394.8</ele>
        <time>2018-12-14T14:13:20Z</time>
      </trkpt>
      <trkpt lat="43.54635" lon="6.29603">
        <ele>394.4</ele>
        <time>2018-12-14T14:13:25Z</time>
      </trkpt>
      <trkpt lat="43.54636" lon="6.29589">
        <ele>394.3</ele>
        <time>2018-12-14T14:13:29Z</time>
      </trkpt>
      <trkpt lat="43.54639" lon="6.29575">
        <ele>394.4</ele>
        <time>2018-12-14T14:13:33Z</time>
      </trkpt>
      <trkpt lat="43.5464" lon="6.29561">
        <ele>394.4</ele>
        <time>2018-12-14T14:13:39Z</time>
      </trkpt>
      <trkpt lat="43.5464" lon="6.29548">
        <ele>394.6</ele>
        <time>2018-12-14T14:13:44Z</time>
      </trkpt>
      <trkpt lat="43.5464" lon="6.29534">
        <ele>394.7</ele>
        <time>2018-12-14T14:13:50Z</time>
      </trkpt>
      <trkpt lat="43.54639" lon="6.29511">
        <ele>394.9</ele>
        <time>2018-12-14T14:13:57Z</time>
      </trkpt>
      <trkpt lat="43.5464" lon="6.29498">
        <ele>395.3</ele>
        <time>2018-12-14T14:14:03Z</time>
      </trkpt>
      <trkpt lat="43.54645" lon="6.29486">
        <ele>395.6</ele>
        <time>2018-12-14T14:14:10Z</time>
      </trkpt>
      <trkpt lat="43.54649" lon="6.29475">
        <ele>395.9</ele>
        <time>2018-12-14T14:14:19Z</time>
      </trkpt>
      <trkpt lat="43.54655" lon="6.29465">
        <ele>396</ele>
        <time>2018-12-14T14:14:26Z</time>
      </trkpt>
      <trkpt lat="43.54659" lon="6.29453">
        <ele>396.6</ele>
        <time>2018-12-14T14:14:38Z</time>
      </trkpt>
      <trkpt lat="43.54666" lon="6.29444">
        <ele>397</ele>
        <time>2018-12-14T14:14:45Z</time>
      </trkpt>
      <trkpt lat="43.54675" lon="6.2944">
        <ele>397.6</ele>
        <time>2018-12-14T14:14:57Z</time>
      </trkpt>
      <trkpt lat="43.54677" lon="6.29427">
        <ele>397.1</ele>
        <time>2018-12-14T14:15:49Z</time>
      </trkpt>
      <trkpt lat="43.54677" lon="6.29414">
        <ele>397.7</ele>
        <time>2018-12-14T14:18:38Z</time>
      </trkpt>
      <trkpt lat="43.54669" lon="6.29407">
        <ele>398.7</ele>
        <time>2018-12-14T14:18:58Z</time>
      </trkpt>
      <trkpt lat="43.54676" lon="6.29415">
        <ele>398.1</ele>
        <time>2018-12-14T14:19:59Z</time>
      </trkpt>
      <trkpt lat="43.54673" lon="6.29427">
        <ele>397</ele>
        <time>2018-12-14T14:20:51Z</time>
      </trkpt>
      <trkpt lat="43.54666" lon="6.29435">
        <ele>396</ele>
        <time>2018-12-14T14:21:03Z</time>
      </trkpt>
      <trkpt lat="43.54661" lon="6.29446">
        <ele>395.8</ele>
        <time>2018-12-14T14:21:13Z</time>
      </trkpt>
      <trkpt lat="43.54655" lon="6.29456">
        <ele>395.4</ele>
        <time>2018-12-14T14:21:24Z</time>
      </trkpt>
      <trkpt lat="43.54648" lon="6.29465">
        <ele>395.2</ele>
        <time>2018-12-14T14:21:34Z</time>
      </trkpt>
      <trkpt lat="43.54643" lon="6.29476">
        <ele>395.2</ele>
        <time>2018-12-14T14:21:51Z</time>
      </trkpt>
      <trkpt lat="43.54636" lon="6.29485">
        <ele>394.3</ele>
        <time>2018-12-14T14:22:02Z</time>
      </trkpt>
      <trkpt lat="43.54631" lon="6.29496">
        <ele>394.1</ele>
        <time>2018-12-14T14:22:11Z</time>
      </trkpt>
      <trkpt lat="43.54627" lon="6.29508">
        <ele>394.1</ele>
        <time>2018-12-14T14:22:20Z</time>
      </trkpt>
      <trkpt lat="43.54626" lon="6.29521">
        <ele>394</ele>
        <time>2018-12-14T14:22:30Z</time>
      </trkpt>
      <trkpt lat="43.54623" lon="6.29533">
        <ele>393.7</ele>
        <time>2018-12-14T14:22:39Z</time>
      </trkpt>
      <trkpt lat="43.54624" lon="6.29545">
        <ele>393.3</ele>
        <time>2018-12-14T14:22:48Z</time>
      </trkpt>
      <trkpt lat="43.54623" lon="6.29559">
        <ele>393.4</ele>
        <time>2018-12-14T14:22:58Z</time>
      </trkpt>
      <trkpt lat="43.54622" lon="6.29571">
        <ele>393.4</ele>
        <time>2018-12-14T14:23:08Z</time>
      </trkpt>
      <trkpt lat="43.54621" lon="6.29584">
        <ele>393.5</ele>
        <time>2018-12-14T14:23:18Z</time>
      </trkpt>
      <trkpt lat="43.54619" lon="6.29597">
        <ele>393.5</ele>
        <time>2018-12-14T14:23:28Z</time>
      </trkpt>
      <trkpt lat="43.54617" lon="6.29609">
        <ele>393.2</ele>
        <time>2018-12-14T14:23:39Z</time>
      </trkpt>
      <trkpt lat="43.54617" lon="6.29622">
        <ele>393.1</ele>
        <time>2018-12-14T14:23:51Z</time>
      </trkpt>
      <trkpt lat="43.54618" lon="6.29635">
        <ele>393.1</ele>
        <time>2018-12-14T14:24:02Z</time>
      </trkpt>
      <trkpt lat="43.54615" lon="6.29648">
        <ele>393.4</ele>
        <time>2018-12-14T14:24:12Z</time>
      </trkpt>
      <trkpt lat="43.54609" lon="6.29659">
        <ele>394.1</ele>
        <time>2018-12-14T14:24:23Z</time>
      </trkpt>
      <trkpt lat="43.54603" lon="6.29669">
        <ele>394.4</ele>
        <time>2018-12-14T14:24:34Z</time>
      </trkpt>
      <trkpt lat="43.54601" lon="6.29682">
        <ele>394.6</ele>
        <time>2018-12-14T14:24:45Z</time>
      </trkpt>
      <trkpt lat="43.54598" lon="6.29693">
        <ele>394.9</ele>
        <time>2018-12-14T14:24:55Z</time>
      </trkpt>
      <trkpt lat="43.54596" lon="6.29706">
        <ele>394.8</ele>
        <time>2018-12-14T14:25:04Z</time>
      </trkpt>
      <trkpt lat="43.54604" lon="6.29713">
        <ele>394.8</ele>
        <time>2018-12-14T14:25:12Z</time>
      </trkpt>
      <trkpt lat="43.54611" lon="6.29721">
        <ele>394.6</ele>
        <time>2018-12-14T14:25:23Z</time>
      </trkpt>
      <trkpt lat="43.54619" lon="6.29728">
        <ele>394.5</ele>
        <time>2018-12-14T14:25:33Z</time>
      </trkpt>
      <trkpt lat="43.54627" lon="6.29734">
        <ele>393.8</ele>
        <time>2018-12-14T14:25:45Z</time>
      </trkpt>
      <trkpt lat="43.54636" lon="6.2974">
        <ele>393</ele>
        <time>2018-12-14T14:25:56Z</time>
      </trkpt>
      <trkpt lat="43.54644" lon="6.29746">
        <ele>392.9</ele>
        <time>2018-12-14T14:26:05Z</time>
      </trkpt>
      <trkpt lat="43.54651" lon="6.29753">
        <ele>392.5</ele>
        <time>2018-12-14T14:26:16Z</time>
      </trkpt>
      <trkpt lat="43.54661" lon="6.29758">
        <ele>391.9</ele>
        <time>2018-12-14T14:26:27Z</time>
      </trkpt>
      <trkpt lat="43.54669" lon="6.29763">
        <ele>391.5</ele>
        <time>2018-12-14T14:26:37Z</time>
      </trkpt>
      <trkpt lat="43.54678" lon="6.29766">
        <ele>391.5</ele>
        <time>2018-12-14T14:26:47Z</time>
      </trkpt>
      <trkpt lat="43.54688" lon="6.29769">
        <ele>391.4</ele>
        <time>2018-12-14T14:26:57Z</time>
      </trkpt>
      <trkpt lat="43.54696" lon="6.29774">
        <ele>391.4</ele>
        <time>2018-12-14T14:27:07Z</time>
      </trkpt>
      <trkpt lat="43.54705" lon="6.29782">
        <ele>391.3</ele>
        <time>2018-12-14T14:27:16Z</time>
      </trkpt>
      <trkpt lat="43.54712" lon="6.29791">
        <ele>391.1</ele>
        <time>2018-12-14T14:27:24Z</time>
      </trkpt>
      <trkpt lat="43.54721" lon="6.29798">
        <ele>391.5</ele>
        <time>2018-12-14T14:27:33Z</time>
      </trkpt>
      <trkpt lat="43.54729" lon="6.29804">
        <ele>391.6</ele>
        <time>2018-12-14T14:27:42Z</time>
      </trkpt>
      <trkpt lat="43.54738" lon="6.29808">
        <ele>391.8</ele>
        <time>2018-12-14T14:27:52Z</time>
      </trkpt>
      <trkpt lat="43.54747" lon="6.29813">
        <ele>391.8</ele>
        <time>2018-12-14T14:28:02Z</time>
      </trkpt>
      <trkpt lat="43.54756" lon="6.29816">
        <ele>392.5</ele>
        <time>2018-12-14T14:28:13Z</time>
      </trkpt>
      <trkpt lat="43.54765" lon="6.29821">
        <ele>392.9</ele>
        <time>2018-12-14T14:28:22Z</time>
      </trkpt>
      <trkpt lat="43.54772" lon="6.29829">
        <ele>393.5</ele>
        <time>2018-12-14T14:28:32Z</time>
      </trkpt>
      <trkpt lat="43.54768" lon="6.2984">
        <ele>393.1</ele>
        <time>2018-12-14T14:28:59Z</time>
      </trkpt>
      <trkpt lat="43.54766" lon="6.29853">
        <ele>392.7</ele>
        <time>2018-12-14T14:29:13Z</time>
      </trkpt>
      <trkpt lat="43.54765" lon="6.29866">
        <ele>392.3</ele>
        <time>2018-12-14T14:29:32Z</time>
      </trkpt>
      <trkpt lat="43.54762" lon="6.29879">
        <ele>391.9</ele>
        <time>2018-12-14T14:29:43Z</time>
      </trkpt>
      <trkpt lat="43.54759" lon="6.2989">
        <ele>391.7</ele>
        <time>2018-12-14T14:30:10Z</time>
      </trkpt>
      <trkpt lat="43.54761" lon="6.29903">
        <ele>391.7</ele>
        <time>2018-12-14T14:30:31Z</time>
      </trkpt>
      <trkpt lat="43.54759" lon="6.29916">
        <ele>391.6</ele>
        <time>2018-12-14T14:30:45Z</time>
      </trkpt>
      <trkpt lat="43.54756" lon="6.29928">
        <ele>391.6</ele>
        <time>2018-12-14T14:30:57Z</time>
      </trkpt>
      <trkpt lat="43.54754" lon="6.2994">
        <ele>392.2</ele>
        <time>2018-12-14T14:31:13Z</time>
      </trkpt>
      <trkpt lat="43.54751" lon="6.29953">
        <ele>392.2</ele>
        <time>2018-12-14T14:31:37Z</time>
      </trkpt>
      <trkpt lat="43.54749" lon="6.29967">
        <ele>392.3</ele>
        <time>2018-12-14T14:31:47Z</time>
      </trkpt>
      <trkpt lat="43.54745" lon="6.29977">
        <ele>392.3</ele>
        <time>2018-12-14T14:31:56Z</time>
      </trkpt>
      <trkpt lat="43.54743" lon="6.2999">
        <ele>392.3</ele>
        <time>2018-12-14T14:32:11Z</time>
      </trkpt>
      <trkpt lat="43.5474" lon="6.30002">
        <ele>392.7</ele>
        <time>2018-12-14T14:32:25Z</time>
      </trkpt>
      <trkpt lat="43.54737" lon="6.30015">
        <ele>392.8</ele>
        <time>2018-12-14T14:32:36Z</time>
      </trkpt>
      <trkpt lat="43.54735" lon="6.30027">
        <ele>393.1</ele>
        <time>2018-12-14T14:32:46Z</time>
      </trkpt>
      <trkpt lat="43.54733" lon="6.30041">
        <ele>393.5</ele>
        <time>2018-12-14T14:32:56Z</time>
      </trkpt>
      <trkpt lat="43.5473" lon="6.30053">
        <ele>393.8</ele>
        <time>2018-12-14T14:33:05Z</time>
      </trkpt>
      <trkpt lat="43.54727" lon="6.30065">
        <ele>394</ele>
        <time>2018-12-14T14:33:13Z</time>
      </trkpt>
      <trkpt lat="43.54724" lon="6.30078">
        <ele>394</ele>
        <time>2018-12-14T14:33:22Z</time>
      </trkpt>
      <trkpt lat="43.54721" lon="6.30091">
        <ele>394.4</ele>
        <time>2018-12-14T14:33:31Z</time>
      </trkpt>
      <trkpt lat="43.5472" lon="6.30103">
        <ele>394.3</ele>
        <time>2018-12-14T14:33:40Z</time>
      </trkpt>
      <trkpt lat="43.54716" lon="6.30115">
        <ele>394.7</ele>
        <time>2018-12-14T14:33:49Z</time>
      </trkpt>
      <trkpt lat="43.54707" lon="6.30108">
        <ele>394.4</ele>
        <time>2018-12-14T14:34:08Z</time>
      </trkpt>
      <trkpt lat="43.54698" lon="6.30113">
        <ele>394</ele>
        <time>2018-12-14T14:34:17Z</time>
      </trkpt>
      <trkpt lat="43.54691" lon="6.30122">
        <ele>393.8</ele>
        <time>2018-12-14T14:34:24Z</time>
      </trkpt>
      <trkpt lat="43.54684" lon="6.30132">
        <ele>394</ele>
        <time>2018-12-14T14:34:34Z</time>
      </trkpt>
      <trkpt lat="43.5468" lon="6.30144">
        <ele>394.1</ele>
        <time>2018-12-14T14:34:44Z</time>
      </trkpt>
      <trkpt lat="43.54675" lon="6.30155">
        <ele>394.3</ele>
        <time>2018-12-14T14:34:55Z</time>
      </trkpt>
      <trkpt lat="43.54672" lon="6.30168">
        <ele>394.7</ele>
        <time>2018-12-14T14:35:05Z</time>
      </trkpt>
      <trkpt lat="43.54668" lon="6.3018">
        <ele>394.8</ele>
        <time>2018-12-14T14:35:15Z</time>
      </trkpt>
      <trkpt lat="43.54665" lon="6.30192">
        <ele>394.8</ele>
        <time>2018-12-14T14:35:25Z</time>
      </trkpt>
      <trkpt lat="43.54662" lon="6.30204">
        <ele>394.7</ele>
        <time>2018-12-14T14:35:36Z</time>
      </trkpt>
      <trkpt lat="43.54657" lon="6.30216">
        <ele>395.1</ele>
        <time>2018-12-14T14:35:45Z</time>
      </trkpt>
      <trkpt lat="43.54651" lon="6.30225">
        <ele>394.9</ele>
        <time>2018-12-14T14:35:53Z</time>
      </trkpt>
      <trkpt lat="43.54646" lon="6.30237">
        <ele>394.9</ele>
        <time>2018-12-14T14:36:02Z</time>
      </trkpt>
      <trkpt lat="43.54639" lon="6.30246">
        <ele>395.2</ele>
        <time>2018-12-14T14:36:10Z</time>
      </trkpt>
      <trkpt lat="43.54633" lon="6.30256">
        <ele>396</ele>
        <time>2018-12-14T14:36:22Z</time>
      </trkpt>
      <trkpt lat="43.54628" lon="6.30267">
        <ele>396.2</ele>
        <time>2018-12-14T14:36:29Z</time>
      </trkpt>
      <trkpt lat="43.54624" lon="6.3028">
        <ele>396.3</ele>
        <time>2018-12-14T14:36:38Z</time>
      </trkpt>
      <trkpt lat="43.54619" lon="6.30291">
        <ele>396.1</ele>
        <time>2018-12-14T14:36:47Z</time>
      </trkpt>
      <trkpt lat="43.54616" lon="6.30303">
        <ele>396.3</ele>
        <time>2018-12-14T14:36:56Z</time>
      </trkpt>
      <trkpt lat="43.54608" lon="6.3031">
        <ele>396.6</ele>
        <time>2018-12-14T14:37:05Z</time>
      </trkpt>
      <trkpt lat="43.54603" lon="6.3032">
        <ele>396.8</ele>
        <time>2018-12-14T14:37:13Z</time>
      </trkpt>
      <trkpt lat="43.54598" lon="6.30332">
        <ele>396.8</ele>
        <time>2018-12-14T14:37:21Z</time>
      </trkpt>
      <trkpt lat="43.54598" lon="6.30345">
        <ele>397.2</ele>
        <time>2018-12-14T14:37:31Z</time>
      </trkpt>
      <trkpt lat="43.54602" lon="6.30357">
        <ele>397.5</ele>
        <time>2018-12-14T14:37:41Z</time>
      </trkpt>
      <trkpt lat="43.54608" lon="6.30367">
        <ele>398.6</ele>
        <time>2018-12-14T14:37:53Z</time>
      </trkpt>
      <trkpt lat="43.54615" lon="6.30375">
        <ele>399.6</ele>
        <time>2018-12-14T14:38:04Z</time>
      </trkpt>
      <trkpt lat="43.54621" lon="6.30385">
        <ele>400.1</ele>
        <time>2018-12-14T14:38:13Z</time>
      </trkpt>
      <trkpt lat="43.54629" lon="6.30392">
        <ele>400.7</ele>
        <time>2018-12-14T14:38:23Z</time>
      </trkpt>
      <trkpt lat="43.54637" lon="6.30398">
        <ele>401.3</ele>
        <time>2018-12-14T14:38:34Z</time>
      </trkpt>
      <trkpt lat="43.54637" lon="6.30412">
        <ele>402.5</ele>
        <time>2018-12-14T14:38:51Z</time>
      </trkpt>
      <trkpt lat="43.54633" lon="6.30424">
        <ele>402.4</ele>
        <time>2018-12-14T14:39:02Z</time>
      </trkpt>
      <trkpt lat="43.54629" lon="6.30435">
        <ele>402.3</ele>
        <time>2018-12-14T14:39:12Z</time>
      </trkpt>
      <trkpt lat="43.54624" lon="6.30447">
        <ele>403</ele>
        <time>2018-12-14T14:39:23Z</time>
      </trkpt>
      <trkpt lat="43.54619" lon="6.30459">
        <ele>403.6</ele>
        <time>2018-12-14T14:39:34Z</time>
      </trkpt>
      <trkpt lat="43.54614" lon="6.3047">
        <ele>403.4</ele>
        <time>2018-12-14T14:39:45Z</time>
      </trkpt>
      <trkpt lat="43.54608" lon="6.30479">
        <ele>403.4</ele>
        <time>2018-12-14T14:39:54Z</time>
      </trkpt>
      <trkpt lat="43.54601" lon="6.30487">
        <ele>403.7</ele>
        <time>2018-12-14T14:40:04Z</time>
      </trkpt>
      <trkpt lat="43.54595" lon="6.30498">
        <ele>403.8</ele>
        <time>2018-12-14T14:40:14Z</time>
      </trkpt>
      <trkpt lat="43.54588" lon="6.30507">
        <ele>403.6</ele>
        <time>2018-12-14T14:40:23Z</time>
      </trkpt>
      <trkpt lat="43.54584" lon="6.30518">
        <ele>403.7</ele>
        <time>2018-12-14T14:40:32Z</time>
      </trkpt>
      <trkpt lat="43.5458" lon="6.3053">
        <ele>403.4</ele>
        <time>2018-12-14T14:40:42Z</time>
      </trkpt>
      <trkpt lat="43.54572" lon="6.30535">
        <ele>403.1</ele>
        <time>2018-12-14T14:40:54Z</time>
      </trkpt>
      <trkpt lat="43.54563" lon="6.3054">
        <ele>402.2</ele>
        <time>2018-12-14T14:41:05Z</time>
      </trkpt>
      <trkpt lat="43.54554" lon="6.30543">
        <ele>401.2</ele>
        <time>2018-12-14T14:41:18Z</time>
      </trkpt>
      <trkpt lat="43.54547" lon="6.30552">
        <ele>399.5</ele>
        <time>2018-12-14T14:41:32Z</time>
      </trkpt>
      <trkpt lat="43.54538" lon="6.30557">
        <ele>398.9</ele>
        <time>2018-12-14T14:41:42Z</time>
      </trkpt>
      <trkpt lat="43.54529" lon="6.30565">
        <ele>398.4</ele>
        <time>2018-12-14T14:41:54Z</time>
      </trkpt>
      <trkpt lat="43.54521" lon="6.30572">
        <ele>397.7</ele>
        <time>2018-12-14T14:42:02Z</time>
      </trkpt>
      <trkpt lat="43.54519" lon="6.30584">
        <ele>397</ele>
        <time>2018-12-14T14:42:15Z</time>
      </trkpt>
      <trkpt lat="43.54516" lon="6.30597">
        <ele>396.4</ele>
        <time>2018-12-14T14:42:27Z</time>
      </trkpt>
      <trkpt lat="43.54516" lon="6.3061">
        <ele>395.7</ele>
        <time>2018-12-14T14:42:38Z</time>
      </trkpt>
      <trkpt lat="43.54513" lon="6.30622">
        <ele>395.1</ele>
        <time>2018-12-14T14:42:47Z</time>
      </trkpt>
      <trkpt lat="43.54512" lon="6.30635">
        <ele>394.3</ele>
        <time>2018-12-14T14:42:57Z</time>
      </trkpt>
      <trkpt lat="43.54507" lon="6.30646">
        <ele>393.5</ele>
        <time>2018-12-14T14:43:08Z</time>
      </trkpt>
      <trkpt lat="43.54501" lon="6.30656">
        <ele>392.5</ele>
        <time>2018-12-14T14:43:19Z</time>
      </trkpt>
      <trkpt lat="43.54503" lon="6.30669">
        <ele>391.2</ele>
        <time>2018-12-14T14:43:30Z</time>
      </trkpt>
      <trkpt lat="43.545" lon="6.30683">
        <ele>390.2</ele>
        <time>2018-12-14T14:43:41Z</time>
      </trkpt>
      <trkpt lat="43.54494" lon="6.30693">
        <ele>389.6</ele>
        <time>2018-12-14T14:43:49Z</time>
      </trkpt>
      <trkpt lat="43.54485" lon="6.30695">
        <ele>389.7</ele>
        <time>2018-12-14T14:44:03Z</time>
      </trkpt>
      <trkpt lat="43.54476" lon="6.30692">
        <ele>390.3</ele>
        <time>2018-12-14T14:44:16Z</time>
      </trkpt>
      <trkpt lat="43.54466" lon="6.30688">
        <ele>390.9</ele>
        <time>2018-12-14T14:44:25Z</time>
      </trkpt>
      <trkpt lat="43.54459" lon="6.3068">
        <ele>392</ele>
        <time>2018-12-14T14:44:39Z</time>
      </trkpt>
      <trkpt lat="43.5445" lon="6.30677">
        <ele>392.1</ele>
        <time>2018-12-14T14:44:50Z</time>
      </trkpt>
      <trkpt lat="43.5444" lon="6.30676">
        <ele>392.6</ele>
        <time>2018-12-14T14:44:59Z</time>
      </trkpt>
      <trkpt lat="43.54431" lon="6.30673">
        <ele>393</ele>
        <time>2018-12-14T14:45:07Z</time>
      </trkpt>
      <trkpt lat="43.54421" lon="6.30673">
        <ele>393.6</ele>
        <time>2018-12-14T14:45:16Z</time>
      </trkpt>
      <trkpt lat="43.54412" lon="6.30675">
        <ele>394.3</ele>
        <time>2018-12-14T14:45:26Z</time>
      </trkpt>
      <trkpt lat="43.54402" lon="6.30675">
        <ele>394.9</ele>
        <time>2018-12-14T14:45:35Z</time>
      </trkpt>
      <trkpt lat="43.54393" lon="6.30675">
        <ele>395.2</ele>
        <time>2018-12-14T14:45:44Z</time>
      </trkpt>
      <trkpt lat="43.54383" lon="6.30678">
        <ele>396.1</ele>
        <time>2018-12-14T14:45:55Z</time>
      </trkpt>
      <trkpt lat="43.54374" lon="6.30677">
        <ele>396.5</ele>
        <time>2018-12-14T14:46:15Z</time>
      </trkpt>
      <trkpt lat="43.54364" lon="6.30677">
        <ele>397.2</ele>
        <time>2018-12-14T14:46:27Z</time>
      </trkpt>
      <trkpt lat="43.54354" lon="6.30679">
        <ele>397.5</ele>
        <time>2018-12-14T14:46:36Z</time>
      </trkpt>
      <trkpt lat="43.54345" lon="6.30682">
        <ele>398</ele>
        <time>2018-12-14T14:46:45Z</time>
      </trkpt>
      <trkpt lat="43.54336" lon="6.3068">
        <ele>398.3</ele>
        <time>2018-12-14T14:46:54Z</time>
      </trkpt>
      <trkpt lat="43.54327" lon="6.30678">
        <ele>398.6</ele>
        <time>2018-12-14T14:47:06Z</time>
      </trkpt>
      <trkpt lat="43.54318" lon="6.30679">
        <ele>398.8</ele>
        <time>2018-12-14T14:47:14Z</time>
      </trkpt>
      <trkpt lat="43.54308" lon="6.30677">
        <ele>398.9</ele>
        <time>2018-12-14T14:47:22Z</time>
      </trkpt>
      <trkpt lat="43.54299" lon="6.30676">
        <ele>398.8</ele>
        <time>2018-12-14T14:47:32Z</time>
      </trkpt>
      <trkpt lat="43.54288" lon="6.30676">
        <ele>398.4</ele>
        <time>2018-12-14T14:47:38Z</time>
      </trkpt>
      <trkpt lat="43.54279" lon="6.30673">
        <ele>398.2</ele>
        <time>2018-12-14T14:47:45Z</time>
      </trkpt>
      <trkpt lat="43.5427" lon="6.3067">
        <ele>397.7</ele>
        <time>2018-12-14T14:47:54Z</time>
      </trkpt>
      <trkpt lat="43.5426" lon="6.30669">
        <ele>397.3</ele>
        <time>2018-12-14T14:48:05Z</time>
      </trkpt>
      <trkpt lat="43.54251" lon="6.30668">
        <ele>396.8</ele>
        <time>2018-12-14T14:48:15Z</time>
      </trkpt>
      <trkpt lat="43.54241" lon="6.30667">
        <ele>396.3</ele>
        <time>2018-12-14T14:48:22Z</time>
      </trkpt>
      <trkpt lat="43.54231" lon="6.30666">
        <ele>395.9</ele>
        <time>2018-12-14T14:48:29Z</time>
      </trkpt>
      <trkpt lat="43.54222" lon="6.30663">
        <ele>395.7</ele>
        <time>2018-12-14T14:48:39Z</time>
      </trkpt>
      <trkpt lat="43.54214" lon="6.30666">
        <ele>395.4</ele>
        <time>2018-12-14T14:48:45Z</time>
      </trkpt>
      <trkpt lat="43.54204" lon="6.30668">
        <ele>395.1</ele>
        <time>2018-12-14T14:48:53Z</time>
      </trkpt>
      <trkpt lat="43.54194" lon="6.30668">
        <ele>394.4</ele>
        <time>2018-12-14T14:49:03Z</time>
      </trkpt>
      <trkpt lat="43.54185" lon="6.3067">
        <ele>392.8</ele>
        <time>2018-12-14T14:49:15Z</time>
      </trkpt>
      <trkpt lat="43.54176" lon="6.30673">
        <ele>392.1</ele>
        <time>2018-12-14T14:49:22Z</time>
      </trkpt>
      <trkpt lat="43.54167" lon="6.30672">
        <ele>391.2</ele>
        <time>2018-12-14T14:49:30Z</time>
      </trkpt>
      <trkpt lat="43.54157" lon="6.30669">
        <ele>389.8</ele>
        <time>2018-12-14T14:49:40Z</time>
      </trkpt>
      <trkpt lat="43.54149" lon="6.30663">
        <ele>387.5</ele>
        <time>2018-12-14T14:49:56Z</time>
      </trkpt>
      <trkpt lat="43.5414" lon="6.30659">
        <ele>385.7</ele>
        <time>2018-12-14T14:50:11Z</time>
      </trkpt>
      <trkpt lat="43.54131" lon="6.30662">
        <ele>384.2</ele>
        <time>2018-12-14T14:50:24Z</time>
      </trkpt>
      <trkpt lat="43.54122" lon="6.30666">
        <ele>383.3</ele>
        <time>2018-12-14T14:51:10Z</time>
      </trkpt>
      <trkpt lat="43.54114" lon="6.30672">
        <ele>382.8</ele>
        <time>2018-12-14T14:52:11Z</time>
      </trkpt>
      <trkpt lat="43.54111" lon="6.30684">
        <ele>382.5</ele>
        <time>2018-12-14T14:55:06Z</time>
      </trkpt>
      <trkpt lat="43.54107" lon="6.30697">
        <ele>381.9</ele>
        <time>2018-12-14T14:55:22Z</time>
      </trkpt>
      <trkpt lat="43.54101" lon="6.30706">
        <ele>380.5</ele>
        <time>2018-12-14T14:55:33Z</time>
      </trkpt>
      <trkpt lat="43.54101" lon="6.30719">
        <ele>378.7</ele>
        <time>2018-12-14T14:55:44Z</time>
      </trkpt>
      <trkpt lat="43.54095" lon="6.3073">
        <ele>377.3</ele>
        <time>2018-12-14T14:55:54Z</time>
      </trkpt>
      <trkpt lat="43.5409" lon="6.30741">
        <ele>376</ele>
        <time>2018-12-14T14:56:05Z</time>
      </trkpt>
      <trkpt lat="43.5409" lon="6.30754">
        <ele>374.7</ele>
        <time>2018-12-14T14:56:17Z</time>
      </trkpt>
      <trkpt lat="43.5409" lon="6.30768">
        <ele>373.6</ele>
        <time>2018-12-14T14:56:26Z</time>
      </trkpt>
      <trkpt lat="43.54091" lon="6.30781">
        <ele>372</ele>
        <time>2018-12-14T14:56:37Z</time>
      </trkpt>
      <trkpt lat="43.5409" lon="6.30794">
        <ele>370.2</ele>
        <time>2018-12-14T14:56:49Z</time>
      </trkpt>
      <trkpt lat="43.54092" lon="6.30806">
        <ele>368.8</ele>
        <time>2018-12-14T14:56:59Z</time>
      </trkpt>
      <trkpt lat="43.5409" lon="6.30818">
        <ele>367.9</ele>
        <time>2018-12-14T14:57:10Z</time>
      </trkpt>
      <trkpt lat="43.54087" lon="6.30832">
        <ele>366.6</ele>
        <time>2018-12-14T14:57:21Z</time>
      </trkpt>
      <trkpt lat="43.54089" lon="6.30845">
        <ele>365.4</ele>
        <time>2018-12-14T14:57:31Z</time>
      </trkpt>
      <trkpt lat="43.54088" lon="6.30858">
        <ele>364.8</ele>
        <time>2018-12-14T14:57:39Z</time>
      </trkpt>
      <trkpt lat="43.54091" lon="6.3087">
        <ele>363.6</ele>
        <time>2018-12-14T14:57:51Z</time>
      </trkpt>
      <trkpt lat="43.5409" lon="6.30883">
        <ele>362.5</ele>
        <time>2018-12-14T14:58:01Z</time>
      </trkpt>
      <trkpt lat="43.54091" lon="6.30896">
        <ele>362.2</ele>
        <time>2018-12-14T14:58:10Z</time>
      </trkpt>
      <trkpt lat="43.54089" lon="6.3091">
        <ele>361.5</ele>
        <time>2018-12-14T14:58:20Z</time>
      </trkpt>
      <trkpt lat="43.54089" lon="6.30923">
        <ele>361.4</ele>
        <time>2018-12-14T14:58:28Z</time>
      </trkpt>
      <trkpt lat="43.54088" lon="6.30936">
        <ele>360.9</ele>
        <time>2018-12-14T14:58:37Z</time>
      </trkpt>
      <trkpt lat="43.54087" lon="6.30949">
        <ele>360.7</ele>
        <time>2018-12-14T14:58:45Z</time>
      </trkpt>
      <trkpt lat="43.54085" lon="6.30961">
        <ele>360.4</ele>
        <time>2018-12-14T14:58:54Z</time>
      </trkpt>
      <trkpt lat="43.54084" lon="6.30974">
        <ele>360.1</ele>
        <time>2018-12-14T14:59:03Z</time>
      </trkpt>
      <trkpt lat="43.54084" lon="6.30986">
        <ele>360</ele>
        <time>2018-12-14T14:59:12Z</time>
      </trkpt>
      <trkpt lat="43.54084" lon="6.30999">
        <ele>359.8</ele>
        <time>2018-12-14T14:59:21Z</time>
      </trkpt>
      <trkpt lat="43.54084" lon="6.31012">
        <ele>359.8</ele>
        <time>2018-12-14T14:59:30Z</time>
      </trkpt>
      <trkpt lat="43.54085" lon="6.31026">
        <ele>360.1</ele>
        <time>2018-12-14T14:59:38Z</time>
      </trkpt>
      <trkpt lat="43.54084" lon="6.31039">
        <ele>361</ele>
        <time>2018-12-14T14:59:48Z</time>
      </trkpt>
      <trkpt lat="43.54085" lon="6.31052">
        <ele>361.8</ele>
        <time>2018-12-14T14:59:56Z</time>
      </trkpt>
      <trkpt lat="43.54084" lon="6.31064">
        <ele>362.1</ele>
        <time>2018-12-14T15:00:04Z</time>
      </trkpt>
      <trkpt lat="43.54085" lon="6.31078">
        <ele>362.4</ele>
        <time>2018-12-14T15:00:16Z</time>
      </trkpt>
      <trkpt lat="43.54092" lon="6.31085">
        <ele>362.1</ele>
        <time>2018-12-14T15:00:25Z</time>
      </trkpt>
      <trkpt lat="43.54099" lon="6.31096">
        <ele>362.1</ele>
        <time>2018-12-14T15:00:34Z</time>
      </trkpt>
      <trkpt lat="43.54101" lon="6.31108">
        <ele>362.1</ele>
        <time>2018-12-14T15:00:48Z</time>
      </trkpt>
      <trkpt lat="43.54103" lon="6.31121">
        <ele>362.4</ele>
        <time>2018-12-14T15:00:59Z</time>
      </trkpt>
      <trkpt lat="43.54107" lon="6.31135">
        <ele>362.4</ele>
        <time>2018-12-14T15:01:08Z</time>
      </trkpt>
      <trkpt lat="43.54109" lon="6.31147">
        <ele>362.1</ele>
        <time>2018-12-14T15:01:17Z</time>
      </trkpt>
      <trkpt lat="43.54112" lon="6.31159">
        <ele>362.3</ele>
        <time>2018-12-14T15:01:26Z</time>
      </trkpt>
      <trkpt lat="43.54115" lon="6.31172">
        <ele>362.6</ele>
        <time>2018-12-14T15:01:38Z</time>
      </trkpt>
      <trkpt lat="43.54117" lon="6.31184">
        <ele>363.2</ele>
        <time>2018-12-14T15:01:51Z</time>
      </trkpt>
      <trkpt lat="43.54118" lon="6.31198">
        <ele>363.9</ele>
        <time>2018-12-14T15:02:02Z</time>
      </trkpt>
      <trkpt lat="43.5412" lon="6.31211">
        <ele>364.5</ele>
        <time>2018-12-14T15:02:11Z</time>
      </trkpt>
      <trkpt lat="43.54125" lon="6.31223">
        <ele>364.4</ele>
        <time>2018-12-14T15:02:22Z</time>
      </trkpt>
      <trkpt lat="43.54127" lon="6.31235">
        <ele>364.5</ele>
        <time>2018-12-14T15:02:34Z</time>
      </trkpt>
      <trkpt lat="43.54128" lon="6.31247">
        <ele>364</ele>
        <time>2018-12-14T15:02:46Z</time>
      </trkpt>
      <trkpt lat="43.5413" lon="6.3126">
        <ele>363.7</ele>
        <time>2018-12-14T15:02:57Z</time>
      </trkpt>
      <trkpt lat="43.54133" lon="6.31272">
        <ele>363.7</ele>
        <time>2018-12-14T15:03:05Z</time>
      </trkpt>
      <trkpt lat="43.54137" lon="6.31284">
        <ele>363.6</ele>
        <time>2018-12-14T15:03:16Z</time>
      </trkpt>
      <trkpt lat="43.54144" lon="6.31293">
        <ele>363.4</ele>
        <time>2018-12-14T15:03:26Z</time>
      </trkpt>
      <trkpt lat="43.54152" lon="6.31301">
        <ele>363.1</ele>
        <time>2018-12-14T15:03:38Z</time>
      </trkpt>
      <trkpt lat="43.54161" lon="6.31303">
        <ele>363</ele>
        <time>2018-12-14T15:03:47Z</time>
      </trkpt>
      <trkpt lat="43.5417" lon="6.31306">
        <ele>363.1</ele>
        <time>2018-12-14T15:03:59Z</time>
      </trkpt>
      <trkpt lat="43.54179" lon="6.31307">
        <ele>363.1</ele>
        <time>2018-12-14T15:04:08Z</time>
      </trkpt>
      <trkpt lat="43.54189" lon="6.31308">
        <ele>363.3</ele>
        <time>2018-12-14T15:04:18Z</time>
      </trkpt>
      <trkpt lat="43.54198" lon="6.31307">
        <ele>363.3</ele>
        <time>2018-12-14T15:04:29Z</time>
      </trkpt>
      <trkpt lat="43.54207" lon="6.31304">
        <ele>363.5</ele>
        <time>2018-12-14T15:04:38Z</time>
      </trkpt>
      <trkpt lat="43.54216" lon="6.313">
        <ele>363.8</ele>
        <time>2018-12-14T15:04:48Z</time>
      </trkpt>
      <trkpt lat="43.54224" lon="6.31293">
        <ele>363.9</ele>
        <time>2018-12-14T15:05:00Z</time>
      </trkpt>
      <trkpt lat="43.54232" lon="6.31287">
        <ele>364.4</ele>
        <time>2018-12-14T15:05:10Z</time>
      </trkpt>
      <trkpt lat="43.54241" lon="6.31282">
        <ele>364.7</ele>
        <time>2018-12-14T15:05:22Z</time>
      </trkpt>
      <trkpt lat="43.5425" lon="6.31279">
        <ele>364.4</ele>
        <time>2018-12-14T15:05:34Z</time>
      </trkpt>
      <trkpt lat="43.54259" lon="6.31277">
        <ele>364.5</ele>
        <time>2018-12-14T15:05:48Z</time>
      </trkpt>
      <trkpt lat="43.54265" lon="6.31286">
        <ele>364.1</ele>
        <time>2018-12-14T15:06:19Z</time>
      </trkpt>
      <trkpt lat="43.54268" lon="6.31291">
        <ele>363.4</ele>
        <time>2018-12-14T15:06:31Z</time>
      </trkpt>
    </trkseg>
  </trk>
</gpx>